Tiona, Pennsylvania
Current Conditions -  °F | °C
As of 8:53 AM on Monday 20 Oct 2014 (Local Time) from KBFD Reporting Station
Overcast Overcast  
Wind Chill: 38°   Ceiling: 8000
Heat Index: 41°   Visibility: 10mi
Dew Point: 33°   Wind: 5mph
Humidity: 73%   Direction: NA
Pressure: 29.96"   Gusts: NA
Location:  41.75°N, 79.07°W
Report Text: KBFD 201253Z AUTO VRB04KT 10SM OVC080 05/01 A2996 RMK AO2 SLP158 T00500006
Loading
Personal Weather Stations






























Interactive Weather Map
Tropical Storm Tracking
New forecast layout! Learn more

10-Day Weather Forecast

Advertisements
Track Severe Weather on mobile